sensor_id;sensor_type;location;lat;lon;timestamp;pressure;altitude;pressure_sealevel;temperature;humidity
75747;BME280;64363;52.198;21.020;2023-02-01T02:03:40;99181.03;;;2.76;85.35
75747;BME280;64363;52.198;21.020;2023-02-01T16:55:25;99222.19;;;3.63;84.38
75747;BME280;64363;52.198;21.020;2023-02-01T16:57:51;99217.66;;;3.70;84.09
75747;BME280;64363;52.198;21.020;2023-02-01T17:00:18;99213.31;;;3.69;83.50
75747;BME280;64363;52.198;21.020;2023-02-01T17:02:45;99214.13;;;3.69;84.29
75747;BME280;64363;52.198;21.020;2023-02-01T17:05:11;99214.28;;;3.63;83.80
75747;BME280;64363;52.198;21.020;2023-02-01T17:07:38;99230.97;;;3.64;83.53
75747;BME280;64363;52.198;21.020;2023-02-01T17:10:08;99228.28;;;3.65;84.54
75747;BME280;64363;52.198;21.020;2023-02-01T17:12:41;99224.75;;;3.66;84.22
75747;BME280;64363;52.198;21.020;2023-02-01T17:15:08;99221.22;;;3.67;83.98
75747;BME280;64363;52.198;21.020;2023-02-01T17:17:37;99224.63;;;3.72;83.55
75747;BME280;64363;52.198;21.020;2023-02-01T17:20:05;99222.81;;;3.74;83.45
75747;BME280;64363;52.198;21.020;2023-02-01T17:22:31;99228.16;;;3.71;83.91
75747;BME280;64363;52.198;21.020;2023-02-01T17:24:57;99230.91;;;3.67;84.30
75747;BME280;64363;52.198;21.020;2023-02-01T17:27:23;99216.91;;;3.65;84.37
75747;BME280;64363;52.198;21.020;2023-02-01T17:29:50;99213.34;;;3.66;84.43
75747;BME280;64363;52.198;21.020;2023-02-01T17:32:21;99221.34;;;3.61;84.63
75747;BME280;64363;52.198;21.020;2023-02-01T17:34:47;99234.53;;;3.61;84.27
75747;BME280;64363;52.198;21.020;2023-02-01T17:37:27;99238.09;;;3.59;84.39
75747;BME280;64363;52.198;21.020;2023-02-01T17:39:53;99232.84;;;3.57;84.49
75747;BME280;64363;52.198;21.020;2023-02-01T17:42:19;99219.75;;;3.54;84.14
75747;BME280;64363;52.198;21.020;2023-02-01T17:44:45;99226.84;;;3.52;84.13
75747;BME280;64363;52.198;21.020;2023-02-01T17:47:11;99212.75;;;3.53;83.79
75747;BME280;64363;52.198;21.020;2023-02-01T17:49:37;99225.91;;;3.53;83.34
75747;BME280;64363;52.198;21.020;2023-02-01T17:52:04;99232.13;;;3.52;84.03
75747;BME280;64363;52.198;21.020;2023-02-01T17:54:31;99236.50;;;3.52;84.13
75747;BME280;64363;52.198;21.020;2023-02-01T17:56:56;99225.09;;;3.51;84.96
75747;BME280;64363;52.198;21.020;2023-02-01T17:59:28;99217.19;;;3.53;85.58
75747;BME280;64363;52.198;21.020;2023-02-01T18:01:53;99219.75;;;3.54;85.39
75747;BME280;64363;52.198;21.020;2023-02-01T18:04:25;99219.03;;;3.48;83.95
75747;BME280;64363;52.198;21.020;2023-02-01T18:06:51;99231.19;;;3.53;83.92
75747;BME280;64363;52.198;21.020;2023-02-01T18:09:17;99227.66;;;3.54;85.12
75747;BME280;64363;52.198;21.020;2023-02-01T18:11:42;99235.75;;;3.45;85.29
75747;BME280;64363;52.198;21.020;2023-02-01T18:14:11;99227.97;;;3.41;84.75
75747;BME280;64363;52.198;21.020;2023-02-01T18:16:37;99230.50;;;3.45;84.94
75747;BME280;64363;52.198;21.020;2023-02-01T18:19:03;99243.72;;;3.44;84.51
75747;BME280;64363;52.198;21.020;2023-02-01T18:21:33;99234.94;;;3.43;84.78
75747;BME280;64363;52.198;21.020;2023-02-01T18:24:00;99249.91;;;3.41;84.64
75747;BME280;64363;52.198;21.020;2023-02-01T18:26:25;99251.78;;;3.36;86.22
75747;BME280;64363;52.198;21.020;2023-02-01T18:28:51;99247.66;;;3.23;88.10
75747;BME280;64363;52.198;21.020;2023-02-01T18:31:26;99226.91;;;3.08;90.85
75747;BME280;64363;52.198;21.020;2023-02-01T18:33:54;99240.97;;;3.05;90.27
75747;BME280;64363;52.198;21.020;2023-02-01T18:36:20;99234.66;;;3.14;90.46
75747;BME280;64363;52.198;21.020;2023-02-01T18:38:46;99228.56;;;3.12;89.76
75747;BME280;64363;52.198;21.020;2023-02-01T18:41:17;99233.69;;;3.18;89.13
75747;BME280;64363;52.198;21.020;2023-02-01T18:43:45;99224.09;;;3.17;89.21
75747;BME280;64363;52.198;21.020;2023-02-01T18:46:11;99230.16;;;3.20;88.98
75747;BME280;64363;52.198;21.020;2023-02-01T18:48:37;99224.72;;;3.28;88.10
75747;BME280;64363;52.198;21.020;2023-02-01T18:51:03;99230.81;;;3.30;88.14
75747;BME280;64363;52.198;21.020;2023-02-01T18:53:29;99228.25;;;3.28;86.90
75747;BME280;64363;52.198;21.020;2023-02-01T18:55:56;99237.75;;;3.36;86.42
75747;BME280;64363;52.198;21.020;2023-02-01T18:58:23;99228.09;;;3.35;86.57
75747;BME280;64363;52.198;21.020;2023-02-01T19:00:54;99227.19;;;3.36;86.36
75747;BME280;64363;52.198;21.020;2023-02-01T19:03:22;99238.56;;;3.38;85.91
75747;BME280;64363;52.198;21.020;2023-02-01T19:05:54;99221.06;;;3.35;85.69
75747;BME280;64363;52.198;21.020;2023-02-01T19:08:20;99228.88;;;3.38;84.96
75747;BME280;64363;52.198;21.020;2023-02-01T19:10:45;99221.88;;;3.37;85.72
75747;BME280;64363;52.198;21.020;2023-02-01T19:13:13;99217.56;;;3.33;84.96
75747;BME280;64363;52.198;21.020;2023-02-01T19:15:40;99216.75;;;3.31;85.71
75747;BME280;64363;52.198;21.020;2023-02-01T19:18:07;99212.44;;;3.28;85.26
75747;BME280;64363;52.198;21.020;2023-02-01T19:20:35;99217.63;;;3.32;85.77
75747;BME280;64363;52.198;21.020;2023-02-01T19:23:01;99210.53;;;3.35;85.78
75747;BME280;64363;52.198;21.020;2023-02-01T19:25:27;99220.41;;;3.24;86.55
75747;BME280;64363;52.198;21.020;2023-02-01T19:27:55;99223.94;;;3.23;87.05
75747;BME280;64363;52.198;21.020;2023-02-01T19:30:21;99215.34;;;3.13;87.25
75747;BME280;64363;52.198;21.020;2023-02-01T19:32:50;99207.53;;;3.10;87.77
75747;BME280;64363;52.198;21.020;2023-02-01T19:35:18;99209.25;;;3.13;87.62
75747;BME280;64363;52.198;21.020;2023-02-01T19:37:46;99211.03;;;3.11;88.28
75747;BME280;64363;52.198;21.020;2023-02-01T19:40:15;99217.16;;;3.11;88.17
75747;BME280;64363;52.198;21.020;2023-02-01T19:42:41;99217.19;;;3.10;87.98
75747;BME280;64363;52.198;21.020;2023-02-01T19:45:07;99210.16;;;3.12;88.27
75747;BME280;64363;52.198;21.020;2023-02-01T19:47:34;99219.81;;;3.11;88.79
75747;BME280;64363;52.198;21.020;2023-02-01T19:50:00;99224.34;;;3.05;88.51
75747;BME280;64363;52.198;21.020;2023-02-01T19:52:26;99219.09;;;3.02;89.70
75747;BME280;64363;52.198;21.020;2023-02-01T19:54:52;99218.31;;;2.98;91.03
75747;BME280;64363;52.198;21.020;2023-02-01T19:57:18;99221.00;;;2.97;90.21
75747;BME280;64363;52.198;21.020;2023-02-01T19:59:43;99215.66;;;3.00;90.28
75747;BME280;64363;52.198;21.020;2023-02-01T20:02:13;99221.63;;;3.08;89.85
75747;BME280;64363;52.198;21.020;2023-02-01T20:04:39;99222.50;;;3.08;88.91
75747;BME280;64363;52.198;21.020;2023-02-01T20:07:05;99215.50;;;3.06;89.24
75747;BME280;64363;52.198;21.020;2023-02-01T20:09:30;99227.78;;;3.07;88.86
75747;BME280;64363;52.198;21.020;2023-02-01T20:11:57;99219.81;;;3.11;88.75
75747;BME280;64363;52.198;21.020;2023-02-01T20:14:23;99214.50;;;3.13;88.24
75747;BME280;64363;52.198;21.020;2023-02-01T20:16:52;99217.97;;;3.15;88.18
75747;BME280;64363;52.198;21.020;2023-02-01T20:19:18;99215.34;;;3.13;88.57
75747;BME280;64363;52.198;21.020;2023-02-01T20:21:44;99215.47;;;3.09;89.63
75747;BME280;64363;52.198;21.020;2023-02-01T20:24:15;99206.63;;;3.11;89.64
75747;BME280;64363;52.198;21.020;2023-02-01T20:26:45;99209.38;;;3.05;89.08
75747;BME280;64363;52.198;21.020;2023-02-01T20:29:11;99213.91;;;2.99;89.42
75747;BME280;64363;52.198;21.020;2023-02-01T20:31:41;99218.44;;;2.92;89.06
75747;BME280;64363;52.198;21.020;2023-02-01T20:34:09;99210.66;;;2.86;88.95
75747;BME280;64363;52.198;21.020;2023-02-01T20:36:35;99209.81;;;2.84;88.64
75747;BME280;64363;52.198;21.020;2023-02-01T20:39:01;99205.53;;;2.78;89.29
75747;BME280;64363;52.198;21.020;2023-02-01T20:41:27;99209.03;;;2.80;88.89
75747;BME280;64363;52.198;21.020;2023-02-01T20:43:53;99205.59;;;2.75;88.75
75747;BME280;64363;52.198;21.020;2023-02-01T20:46:19;99203.75;;;2.80;88.71
75747;BME280;64363;52.198;21.020;2023-02-01T20:48:48;99206.19;;;2.90;87.78
75747;BME280;64363;52.198;21.020;2023-02-01T20:51:16;99210.63;;;2.88;87.73
75747;BME280;64363;52.198;21.020;2023-02-01T20:53:42;99205.44;;;2.85;87.56
75747;BME280;64363;52.198;21.020;2023-02-01T20:56:10;99211.53;;;2.85;87.70
75747;BME280;64363;52.198;21.020;2023-02-01T20:58:37;99211.59;;;2.82;88.06
75747;BME280;64363;52.198;21.020;2023-02-01T21:01:04;99202.75;;;2.86;87.66
75747;BME280;64363;52.198;21.020;2023-02-01T21:03:30;99203.50;;;2.93;87.15
75747;BME280;64363;52.198;21.020;2023-02-01T21:05:58;99213.09;;;2.97;87.29
75747;BME280;64363;52.198;21.020;2023-02-01T21:08:26;99199.88;;;2.98;86.80
75747;BME280;64363;52.198;21.020;2023-02-01T21:10:57;99219.00;;;3.08;86.61
75747;BME280;64363;52.198;21.020;2023-02-01T21:13:24;99203.97;;;3.13;86.70
75747;BME280;64363;52.198;21.020;2023-02-01T21:15:50;99199.47;;;3.18;86.10
75747;BME280;64363;52.198;21.020;2023-02-01T21:18:16;99206.41;;;3.22;86.65
75747;BME280;64363;52.198;21.020;2023-02-01T21:20:42;99206.28;;;3.28;86.31
75747;BME280;64363;52.198;21.020;2023-02-01T21:23:11;99211.56;;;3.28;85.83
75747;BME280;64363;52.198;21.020;2023-02-01T21:25:41;99215.00;;;3.30;86.12
75747;BME280;64363;52.198;21.020;2023-02-01T21:28:08;99210.63;;;3.29;85.74
75747;BME280;64363;52.198;21.020;2023-02-01T21:30:33;99216.69;;;3.34;86.00
75747;BME280;64363;52.198;21.020;2023-02-01T21:33:00;99219.38;;;3.31;85.63
75747;BME280;64363;52.198;21.020;2023-02-01T21:35:26;99224.66;;;3.31;86.13
75747;BME280;64363;52.198;21.020;2023-02-01T21:37:52;99211.50;;;3.31;85.72
75747;BME280;64363;52.198;21.020;2023-02-01T21:40:18;99215.88;;;3.30;86.01
75747;BME280;64363;52.198;21.020;2023-02-01T21:42:44;99221.09;;;3.34;85.52
75747;BME280;64363;52.198;21.020;2023-02-01T21:45:11;99210.63;;;3.29;85.85
75747;BME280;64363;52.198;21.020;2023-02-01T21:47:37;99221.03;;;3.37;85.42
75747;BME280;64363;52.198;21.020;2023-02-01T21:50:16;99204.28;;;3.39;84.74
75747;BME280;64363;52.198;21.020;2023-02-01T21:52:43;99208.75;;;3.36;85.66
75747;BME280;64363;52.198;21.020;2023-02-01T21:55:09;99195.59;;;3.36;85.05
75747;BME280;64363;52.198;21.020;2023-02-01T21:57:35;99202.72;;;3.29;85.42
75747;BME280;64363;52.198;21.020;2023-02-01T22:00:02;99202.72;;;3.30;85.40
75747;BME280;64363;52.198;21.020;2023-02-01T22:02:29;99187.00;;;3.26;85.64
75747;BME280;64363;52.198;21.020;2023-02-01T22:04:54;99193.94;;;3.30;85.52
75747;BME280;64363;52.198;21.020;2023-02-01T22:07:22;99188.72;;;3.28;85.50
75747;BME280;64363;52.198;21.020;2023-02-01T22:09:48;99187.84;;;3.28;86.40
75747;BME280;64363;52.198;21.020;2023-02-01T22:12:15;99187.00;;;3.26;86.01
75747;BME280;64363;52.198;21.020;2023-02-01T22:14:40;99191.38;;;3.27;86.25
75747;BME280;64363;52.198;21.020;2023-02-01T22:17:09;99180.94;;;3.22;86.44
75747;BME280;64363;52.198;21.020;2023-02-01T22:19:38;99197.63;;;3.23;85.62
75747;BME280;64363;52.198;21.020;2023-02-01T22:22:04;99192.19;;;3.29;85.55
75747;BME280;64363;52.198;21.020;2023-02-01T22:24:30;99189.53;;;3.30;85.27
75747;BME280;64363;52.198;21.020;2023-02-01T22:26:56;99192.09;;;3.35;85.49
75747;BME280;64363;52.198;21.020;2023-02-01T22:29:21;99195.59;;;3.34;84.93
75747;BME280;64363;52.198;21.020;2023-02-01T22:31:49;99191.13;;;3.39;84.95
75747;BME280;64363;52.198;21.020;2023-02-01T22:34:14;99198.28;;;3.33;84.79
75747;BME280;64363;52.198;21.020;2023-02-01T22:36:40;99181.53;;;3.35;86.37
75747;BME280;64363;52.198;21.020;2023-02-01T22:39:07;99183.06;;;3.45;85.48
75747;BME280;64363;52.198;21.020;2023-02-01T22:41:33;99191.91;;;3.43;84.83
75747;BME280;64363;52.198;21.020;2023-02-01T22:43:59;99191.94;;;3.41;84.65
75747;BME280;64363;52.198;21.020;2023-02-01T22:46:27;99191.13;;;3.39;85.40
75747;BME280;64363;52.198;21.020;2023-02-01T22:48:52;99190.16;;;3.42;85.56
75747;BME280;64363;52.198;21.020;2023-02-01T22:51:23;99174.38;;;3.42;86.36
75747;BME280;64363;52.198;21.020;2023-02-01T22:53:50;99195.34;;;3.46;86.16
75747;BME280;64363;52.198;21.020;2023-02-01T22:56:24;99188.41;;;3.42;85.71
75747;BME280;64363;52.198;21.020;2023-02-01T22:58:58;99183.28;;;3.36;86.57
75747;BME280;64363;52.198;21.020;2023-02-01T23:01:25;99185.22;;;3.28;86.77
75747;BME280;64363;52.198;21.020;2023-02-01T23:03:55;99177.41;;;3.23;87.09
75747;BME280;64363;52.198;21.020;2023-02-01T23:06:25;99179.69;;;2.99;88.73
75747;BME280;64363;52.198;21.020;2023-02-01T23:08:56;99181.81;;;2.80;91.36
75747;BME280;64363;52.198;21.020;2023-02-01T23:11:22;99188.44;;;2.56;91.98
75747;BME280;64363;52.198;21.020;2023-02-01T23:13:48;99165.88;;;2.43;92.92
75747;BME280;64363;52.198;21.020;2023-02-01T23:16:15;99180.72;;;2.46;94.01
75747;BME280;64363;52.198;21.020;2023-02-01T23:18:41;99185.44;;;2.25;94.21
75747;BME280;64363;52.198;21.020;2023-02-01T23:21:09;99184.56;;;2.26;94.52
75747;BME280;64363;52.198;21.020;2023-02-01T23:23:35;99186.47;;;2.17;94.58
75747;BME280;64363;52.198;21.020;2023-02-01T23:26:02;99185.53;;;2.21;95.02
75747;BME280;64363;52.198;21.020;2023-02-01T23:28:28;99183.91;;;2.15;95.53
75747;BME280;64363;52.198;21.020;2023-02-01T23:30:54;99184.78;;;2.14;95.63
75747;BME280;64363;52.198;21.020;2023-02-01T23:33:25;99178.56;;;2.20;95.54
75747;BME280;64363;52.198;21.020;2023-02-01T23:35:59;99180.34;;;2.18;95.99
75747;BME280;64363;52.198;21.020;2023-02-01T23:38:25;99181.13;;;2.23;96.55
75747;BME280;64363;52.198;21.020;2023-02-01T23:40:57;99178.44;;;2.26;96.52
75747;BME280;64363;52.198;21.020;2023-02-01T23:43:22;99171.44;;;2.25;95.80
75747;BME280;64363;52.198;21.020;2023-02-01T23:46:07;99178.44;;;2.26;95.91
75747;BME280;64363;52.198;21.020;2023-02-01T23:48:32;99171.44;;;2.25;96.00
75747;BME280;64363;52.198;21.020;2023-02-01T23:50:58;99170.59;;;2.23;96.08
75747;BME280;64363;52.198;21.020;2023-02-01T23:53:24;99170.59;;;2.24;95.78
75747;BME280;64363;52.198;21.020;2023-02-01T23:55:51;99177.63;;;2.24;95.70
75747;BME280;64363;52.198;21.020;2023-02-01T23:58:17;99161.69;;;2.31;95.81
